Time;durP1;ratioP1;P1;durP2;ratioP2;P2;SDS_P1;SDS_P2;PMS_P1;PMS_P2;Temp;Humidity;BMP_temperature;BMP_pressure;BME280_temperature;BME280_humidity;BME280_pressure;Samples;Min_cycle;Max_cycle;Signal;HPM_P1;HPM_P2
2022/03/22 00:02:28;;;;;;;46.50;29.30;;;;;;;6.97;35.01;102415.41;107178;1276;138219;-78
2022/03/22 00:05:00;;;;;;;48.10;29.30;;;;;;;6.96;35.12;102415.22;107338;1276;96325;-78
2022/03/22 00:07:33;;;;;;;51.20;29.90;;;;;;;6.95;35.37;102412.27;107365;1277;112577;-78
2022/03/22 00:10:06;;;;;;;47.40;29.70;;;;;;;6.94;35.31;102416.56;107265;1277;138401;-78
2022/03/22 00:12:39;;;;;;;48.80;29.20;;;;;;;6.92;35.35;102409.10;107306;1276;107696;-78
2022/03/22 00:15:12;;;;;;;44.80;28.50;;;;;;;6.92;35.37;102413.25;107197;1276;137955;-78
2022/03/22 00:18:05;;;;;;;48.10;28.60;;;;;;;6.89;35.28;102408.71;107351;1276;96342;-78
2022/03/22 00:20:37;;;;;;;49.50;29.10;;;;;;;6.89;35.36;102408.70;107192;1277;139295;-78
2022/03/22 00:23:09;;;;;;;52.80;30.40;;;;;;;6.89;35.54;102408.88;107304;1276;108991;-78
2022/03/22 00:25:41;;;;;;;47.40;29.40;;;;;;;6.89;35.67;102408.36;107339;1277;110105;-78
2022/03/22 00:28:13;;;;;;;51.60;30.70;;;;;;;6.89;35.82;102407.67;107258;1276;137532;-78
2022/03/22 00:30:46;;;;;;;52.20;29.10;;;;;;;6.90;35.59;102409.07;107340;1277;96618;-78
2022/03/22 00:33:18;;;;;;;50.70;29.50;;;;;;;6.88;35.60;102409.91;107243;1277;139296;-78
2022/03/22 00:35:50;;;;;;;49.40;29.20;;;;;;;6.87;35.71;102406.60;107351;1276;109038;-78
2022/03/22 00:38:22;;;;;;;44.40;27.60;;;;;;;6.88;35.74;102403.49;107200;1276;138163;-78
2022/03/22 00:40:55;;;;;;;45.50;27.90;;;;;;;6.89;35.98;102406.28;107321;1276;96155;-78
2022/03/22 00:43:27;;;;;;;48.60;28.20;;;;;;;6.88;36.02;102401.94;107328;1277;95799;-78
2022/03/22 00:45:59;;;;;;;47.80;28.50;;;;;;;6.89;35.75;102399.03;107173;1277;138477;-78
2022/03/22 00:48:32;;;;;;;50.80;28.80;;;;;;;6.89;36.21;102400.93;107352;1276;107793;-78
2022/03/22 00:51:04;;;;;;;46.00;28.20;;;;;;;6.90;36.20;102400.25;107220;1276;139200;-78
2022/03/22 00:53:36;;;;;;;49.30;28.90;;;;;;;6.89;36.09;102392.45;107323;1278;96090;-78
2022/03/22 00:56:10;;;;;;;48.90;29.30;;;;;;;6.89;36.04;102399.36;107246;1276;138729;-78
2022/03/22 00:58:43;;;;;;;49.70;29.40;;;;;;;6.88;36.08;102398.48;107334;1277;112676;-78
2022/03/22 01:01:15;;;;;;;51.20;28.60;;;;;;;6.86;36.08;102396.73;107334;1276;108363;-78
2022/03/22 01:03:48;;;;;;;46.00;27.90;;;;;;;6.85;36.27;102394.63;107222;1277;140048;-79
2022/03/22 01:06:20;;;;;;;50.20;27.90;;;;;;;6.83;36.37;102396.16;107331;1277;96147;-80
2022/03/22 01:08:52;;;;;;;52.50;29.60;;;;;;;6.81;36.45;102395.92;107266;1277;137631;-78
2022/03/22 01:11:24;;;;;;;45.00;28.40;;;;;;;6.79;36.28;102388.29;107373;1277;111577;-78
2022/03/22 01:13:56;;;;;;;46.10;27.50;;;;;;;6.79;36.48;102392.25;107228;1278;138065;-78
2022/03/22 01:16:28;;;;;;;46.60;29.70;;;;;;;6.77;36.46;102388.59;107360;1278;108240;-78
2022/03/22 01:19:00;;;;;;;49.00;28.80;;;;;;;6.77;36.54;102388.94;107345;1277;96203;-79
2022/03/22 01:21:32;;;;;;;47.20;29.30;;;;;;;6.78;36.61;102384.11;107270;1276;137931;-78
2022/03/22 01:24:06;;;;;;;49.80;29.10;;;;;;;6.78;36.60;102384.63;107316;1277;110492;-78
2022/03/22 01:26:38;;;;;;;50.60;29.50;;;;;;;6.77;36.59;102382.02;107228;1277;138658;-78
2022/03/22 01:29:11;;;;;;;50.00;29.20;;;;;;;6.76;36.62;102385.47;107249;1277;108767;-78
2022/03/22 01:31:44;;;;;;;47.90;29.10;;;;;;;6.74;36.84;102380.77;107340;1276;95995;-78
2022/03/22 01:34:16;;;;;;;59.40;33.30;;;;;;;6.72;36.81;102385.06;107146;1276;139556;-78
2022/03/22 01:36:48;;;;;;;63.30;35.10;;;;;;;6.66;37.30;102386.50;107312;1276;111398;-78
2022/03/22 01:39:20;;;;;;;64.40;36.00;;;;;;;6.56;37.39;102387.71;107179;1276;138533;-78
2022/03/22 01:41:52;;;;;;;54.60;33.60;;;;;;;6.51;37.57;102385.20;107341;1276;107650;-78
2022/03/22 01:44:24;;;;;;;50.50;30.80;;;;;;;6.47;37.49;102383.91;107234;1277;138554;-78
2022/03/22 01:47:00;;;;;;;50.80;29.20;;;;;;;6.45;37.42;102383.34;107365;1276;96242;-78
2022/03/22 01:49:33;;;;;;;58.00;31.30;;;;;;;6.45;37.28;102381.95;107348;1276;111118;-78
2022/03/22 01:52:07;;;;;;;53.90;30.20;;;;;;;6.43;37.53;102381.58;107199;1276;137840;-77
2022/03/22 01:54:39;;;;;;;46.90;29.90;;;;;;;6.43;37.45;102380.20;107340;1276;107687;-78
2022/03/22 01:57:11;;;;;;;52.00;31.50;;;;;;;6.44;37.56;102384.36;107185;1277;138032;-78
2022/03/22 01:59:44;;;;;;;57.20;33.40;;;;;;;6.43;37.64;102386.24;107307;1277;97602;-78
2022/03/22 02:08:02;;;;;;;59.50;35.10;;;;;;;6.33;38.04;102385.90;107208;1276;138037;-76
2022/03/22 02:10:35;;;;;;;58.60;33.00;;;;;;;6.31;38.09;102384.48;107314;1277;96310;-77
2022/03/22 02:13:07;;;;;;;58.30;34.90;;;;;;;6.30;38.15;102383.76;107309;1276;96011;-76
2022/03/22 02:15:39;;;;;;;64.90;35.10;;;;;;;6.26;38.23;102384.19;107089;1277;139679;-77
2022/03/22 02:18:11;;;;;;;56.40;34.30;;;;;;;6.22;38.26;102383.94;107336;1276;108352;-77
2022/03/22 02:20:43;;;;;;;59.10;33.50;;;;;;;6.21;38.42;102383.91;107209;1277;138587;-76
2022/03/22 02:23:21;;;;;;;54.70;32.10;;;;;;;6.20;38.52;102381.13;107313;1276;96201;-76
2022/03/22 02:25:53;;;;;;;62.20;36.20;;;;;;;6.18;38.63;102378.85;107359;1276;96133;-77
2022/03/22 02:28:25;;;;;;;64.40;35.40;;;;;;;6.15;38.66;102381.22;107251;1276;138116;-77
2022/03/22 02:30:57;;;;;;;62.70;35.70;;;;;;;6.13;38.64;102380.83;107357;1276;107542;-76
2022/03/22 02:33:29;;;;;;;59.70;36.60;;;;;;;6.10;38.80;102387.66;107223;1277;138399;-76
2022/03/22 02:36:01;;;;;;;60.30;36.20;;;;;;;6.06;38.80;102387.42;107314;1275;96482;-76
2022/03/22 02:38:33;;;;;;;65.70;37.20;;;;;;;6.03;38.78;102390.29;107256;1276;137925;-78
2022/03/22 02:41:06;;;;;;;61.70;37.70;;;;;;;5.99;38.85;102384.52;107323;1278;112462;-78
2022/03/22 02:43:38;;;;;;;72.10;39.60;;;;;;;5.96;39.19;102388.77;107373;1277;107926;-77
2022/03/22 02:46:10;;;;;;;66.10;38.50;;;;;;;5.91;39.14;102386.75;107132;1278;137965;-78
2022/03/22 02:48:42;;;;;;;63.40;37.10;;;;;;;5.87;39.23;102385.95;107227;1277;96275;-78
2022/03/22 02:51:14;;;;;;;68.20;36.90;;;;;;;5.84;39.40;102385.20;107170;1276;138198;-78
2022/03/22 02:53:46;;;;;;;64.30;36.20;;;;;;;5.82;39.54;102386.02;107354;1276;111519;-78
2022/03/22 02:56:19;;;;;;;64.30;38.10;;;;;;;5.80;39.66;102382.87;107186;1278;138618;-78
2022/03/22 02:58:53;;;;;;;66.00;37.60;;;;;;;5.79;39.48;102384.41;107320;1276;109033;-77
2022/03/22 03:01:25;;;;;;;66.70;36.30;;;;;;;5.77;39.74;102389.02;107292;1276;96356;-76
2022/03/22 03:03:57;;;;;;;61.50;36.50;;;;;;;5.75;39.75;102391.92;107134;1277;138361;-79
2022/03/22 03:06:30;;;;;;;61.30;36.90;;;;;;;5.72;39.72;102392.70;107345;1276;112621;-79
2022/03/22 03:09:02;;;;;;;63.70;36.80;;;;;;;5.70;39.92;102396.27;107249;1277;137940;-79
2022/03/22 03:11:34;;;;;;;59.00;35.30;;;;;;;5.67;39.75;102392.58;107360;1277;109316;-78
2022/03/22 03:16:55;;;;;;;64.70;35.50;;;;;;;5.63;39.78;102402.16;107321;1276;96335;-79
2022/03/22 03:19:27;;;;;;;59.90;35.80;;;;;;;5.61;39.75;102405.23;107328;1277;110367;-79
2022/03/22 03:22:00;;;;;;;59.00;35.10;;;;;;;5.59;39.62;102405.55;107279;1276;137885;-77
2022/03/22 03:24:33;;;;;;;65.90;36.30;;;;;;;5.57;39.80;102402.90;107265;1279;108326;-78
2022/03/22 03:27:06;;;;;;;59.90;36.00;;;;;;;5.58;39.72;102405.69;107249;1276;138218;-78
2022/03/22 03:29:38;;;;;;;62.00;36.20;;;;;;;5.56;40.07;102407.53;107377;1277;96232;-77
2022/03/22 03:32:10;;;;;;;61.40;34.90;;;;;;;5.54;39.88;102407.81;107354;1277;112364;-77
2022/03/22 03:34:43;;;;;;;61.70;35.70;;;;;;;5.53;39.97;102409.69;107293;1278;138965;-79
2022/03/22 03:37:15;;;;;;;61.10;34.90;;;;;;;5.52;40.06;102414.50;107351;1276;108839;-79
2022/03/22 03:39:47;;;;;;;62.70;35.30;;;;;;;5.52;39.98;102412.95;107191;1277;138771;-79
2022/03/22 03:42:19;;;;;;;61.20;35.00;;;;;;;5.51;40.08;102412.92;107376;1277;96090;-79
2022/03/22 03:47:40;;;;;;;56.30;34.50;;;;;;;5.48;40.01;102410.45;107390;1276;108566;-80
2022/03/22 03:50:12;;;;;;;59.00;34.10;;;;;;;5.48;40.36;102413.02;107360;1277;107739;-79
2022/03/22 03:52:44;;;;;;;58.80;33.10;;;;;;;5.48;40.26;102412.52;107191;1276;138266;-79
2022/03/22 03:55:16;;;;;;;57.20;32.90;;;;;;;5.48;40.06;102413.89;107300;1277;95887;-78
2022/03/22 03:57:49;;;;;;;55.80;33.00;;;;;;;5.48;40.26;102413.89;107260;1277;137842;-79
2022/03/22 04:00:23;;;;;;;58.00;34.20;;;;;;;5.48;40.32;102414.94;107371;1278;109317;-78
2022/03/22 04:02:56;;;;;;;59.30;34.50;;;;;;;5.46;40.53;102416.11;107226;1277;138025;-79
2022/03/22 04:05:28;;;;;;;56.90;33.70;;;;;;;5.45;40.61;102419.88;107387;1276;96204;-80
2022/03/22 04:08:01;;;;;;;58.10;34.20;;;;;;;5.45;40.75;102420.57;107377;1277;96501;-80
2022/03/22 04:10:34;;;;;;;57.70;34.40;;;;;;;5.45;40.98;102417.99;107227;1276;138206;-79
2022/03/22 04:13:06;;;;;;;54.10;33.80;;;;;;;5.46;40.90;102419.73;107400;1278;109243;-80
2022/03/22 04:15:39;;;;;;;60.20;35.20;;;;;;;5.46;41.05;102420.93;107217;1276;138235;-80
2022/03/22 04:18:11;;;;;;;60.60;34.90;;;;;;;5.45;41.12;102424.35;107376;1278;96112;-78
2022/03/22 04:20:43;;;;;;;61.70;34.40;;;;;;;5.42;41.47;102423.61;107167;1277;137873;-78
2022/03/22 04:23:16;;;;;;;58.60;33.70;;;;;;;5.42;41.53;102424.82;107381;1277;111427;-77
2022/03/22 04:25:48;;;;;;;56.80;32.70;;;;;;;5.42;41.66;102419.47;107393;1277;109019;-78
2022/03/22 04:34:01;;;;;;;52.90;32.10;;;;;;;5.43;42.11;102419.48;107223;1277;137775;-78
2022/03/22 04:36:33;;;;;;;57.40;33.40;;;;;;;5.42;42.09;102419.65;107400;1276;112657;-78
2022/03/22 04:39:06;;;;;;;53.10;31.50;;;;;;;5.42;42.26;102422.25;107268;1277;138047;-78
2022/03/22 04:41:38;;;;;;;56.00;30.70;;;;;;;5.43;42.19;102421.73;107227;1278;110106;-78
2022/03/22 04:44:10;;;;;;;54.50;32.80;;;;;;;5.44;42.51;102424.70;107293;1277;96101;-78
2022/03/22 04:46:42;;;;;;;53.40;30.90;;;;;;;5.46;42.59;102423.70;107258;1276;138093;-78
2022/03/22 04:49:14;;;;;;;56.30;32.60;;;;;;;5.49;42.81;102422.91;107239;1278;111503;-78
2022/03/22 04:57:27;;;;;;;49.30;31.00;;;;;;;5.67;42.71;102426.77;105689;1278;138085;-77
2022/03/22 04:59:59;;;;;;;49.10;31.40;;;;;;;5.76;42.80;102425.92;105814;1277;97866;-77
2022/03/22 05:02:32;;;;;;;51.50;31.40;;;;;;;5.87;42.74;102427.73;105776;1277;112521;-77
2022/03/22 05:05:05;;;;;;;49.40;30.20;;;;;;;5.98;42.46;102427.85;105466;1277;176285;-78
2022/03/22 05:07:42;;;;;;;47.80;30.20;;;;;;;6.13;42.28;102431.09;107288;1277;107908;-79
2022/03/22 05:10:15;;;;;;;49.10;29.20;;;;;;;6.31;42.19;102431.11;107285;1277;138759;-78
2022/03/22 05:12:47;;;;;;;49.80;30.00;;;;;;;6.65;41.67;102430.05;107368;1277;96314;-79
2022/03/22 05:15:19;;;;;;;49.10;29.80;;;;;;;7.07;41.34;102428.73;107252;1277;137961;-76
2022/03/22 05:17:52;;;;;;;47.80;30.20;;;;;;;7.61;40.68;102420.41;107252;1278;107911;-76
2022/03/22 05:20:24;;;;;;;46.80;28.60;;;;;;;8.41;39.77;102423.73;107258;1277;108017;-76
2022/03/22 05:22:58;;;;;;;45.00;29.80;;;;;;;9.44;38.65;102420.54;107219;1277;139126;-76
2022/03/22 05:25:31;;;;;;;46.70;30.60;;;;;;;10.58;37.62;102422.18;107426;1277;96106;-76
2022/03/22 05:28:04;;;;;;;49.00;31.20;;;;;;;11.78;36.36;102412.44;107180;1277;137880;-77
2022/03/22 05:30:36;;;;;;;52.00;34.80;;;;;;;12.86;35.14;102410.02;107353;1277;108984;-77
2022/03/22 05:33:08;;;;;;;50.70;34.80;;;;;;;14.10;33.76;102407.60;107110;1278;138410;-77
2022/03/22 05:35:41;;;;;;;54.30;35.80;;;;;;;15.53;32.64;102404.02;107266;1277;95998;-77
2022/03/22 05:38:13;;;;;;;58.10;38.40;;;;;;;17.20;31.35;102397.04;107365;1277;96034;-78
2022/03/22 05:40:45;;;;;;;58.60;37.70;;;;;;;18.94;29.76;102392.52;107206;1277;138753;-77
2022/03/22 05:43:17;;;;;;;63.60;41.20;;;;;;;20.62;27.99;102387.66;107325;1277;107011;-76
2022/03/22 05:45:50;;;;;;;58.90;39.90;;;;;;;22.04;26.35;102385.66;107197;1277;139045;-76
2022/03/22 05:48:24;;;;;;;61.00;40.10;;;;;;;23.32;24.96;102374.79;107224;1278;96163;-75
2022/03/22 05:50:56;;;;;;;68.20;44.80;;;;;;;24.30;23.70;102378.21;107249;1277;138203;-75
2022/03/22 05:53:29;;;;;;;68.50;46.90;;;;;;;25.01;22.73;102376.30;107322;1277;111447;-75
2022/03/22 05:56:01;;;;;;;68.80;45.30;;;;;;;25.55;21.80;102373.73;107363;1277;108885;-76
2022/03/22 05:58:34;;;;;;;63.90;47.20;;;;;;;26.06;21.01;102378.54;107215;1277;138322;-76
2022/03/22 06:01:07;;;;;;;68.10;48.50;;;;;;;26.54;20.49;102378.14;107260;1277;96552;-75
2022/03/22 06:03:39;;;;;;;70.60;48.30;;;;;;;27.01;19.99;102372.90;107207;1277;140518;-77
2022/03/22 06:06:11;;;;;;;64.80;45.90;;;;;;;27.50;19.34;102369.14;107367;1276;112767;-77
2022/03/22 06:08:45;;;;;;;68.30;46.60;;;;;;;27.99;18.85;102369.41;107329;1277;107889;-76
2022/03/22 06:11:18;;;;;;;58.50;43.10;;;;;;;28.50;18.24;102369.81;107201;1277;138216;-76
2022/03/22 06:13:50;;;;;;;59.40;41.00;;;;;;;28.79;17.74;102369.78;107341;1277;96280;-77
2022/03/22 06:16:22;;;;;;;58.80;39.90;;;;;;;28.94;17.19;102366.84;107223;1276;138193;-75
2022/03/22 06:18:56;;;;;;;62.70;40.70;;;;;;;29.24;16.75;102370.64;107354;1277;110449;-76
2022/03/22 06:21:28;;;;;;;58.70;38.10;;;;;;;29.47;16.47;102366.17;107220;1277;139739;-75
2022/03/22 06:24:00;;;;;;;62.40;41.20;;;;;;;29.69;16.16;102369.98;107254;1277;108857;-76
2022/03/22 06:26:32;;;;;;;65.00;39.40;;;;;;;29.90;15.92;102370.06;107349;1277;96222;-76
2022/03/22 06:29:05;;;;;;;65.20;39.60;;;;;;;30.28;15.59;102371.28;107027;1279;138423;-76
2022/03/22 06:31:38;;;;;;;61.40;37.90;;;;;;;30.49;15.33;102371.86;107408;1277;111478;-77
2022/03/22 06:34:10;;;;;;;67.20;37.70;;;;;;;30.89;15.13;102363.58;107204;1277;138982;-76
2022/03/22 06:36:42;;;;;;;55.90;36.10;;;;;;;31.60;15.18;102362.26;107400;1277;108216;-77
2022/03/22 06:39:15;;;;;;;56.90;34.40;;;;;;;32.30;14.76;102365.70;107272;1277;138451;-77
2022/03/22 06:41:48;;;;;;;60.00;36.50;;;;;;;32.74;14.25;102367.73;107364;1277;96122;-77
2022/03/22 06:44:20;;;;;;;55.60;34.90;;;;;;;33.09;13.70;102367.86;107338;1277;112046;-77
2022/03/22 06:46:54;;;;;;;51.30;33.50;;;;;;;33.43;13.20;102363.94;107282;1277;138586;-77
2022/03/22 06:49:26;;;;;;;55.00;33.40;;;;;;;33.82;13.11;102365.55;107334;1277;109854;-80
2022/03/22 06:51:58;;;;;;;49.30;32.40;;;;;;;33.94;12.80;102366.56;107255;1277;138194;-81
2022/03/22 06:54:32;;;;;;;46.60;30.00;;;;;;;34.08;12.34;102372.39;107366;1277;96038;-81
2022/03/22 06:57:05;;;;;;;46.40;31.00;;;;;;;34.04;12.26;102370.02;107177;1277;138116;-80
2022/03/22 06:59:38;;;;;;;47.00;32.70;;;;;;;34.12;12.43;102367.41;107389;1277;109067;-79
2022/03/22 07:02:10;;;;;;;62.90;32.40;;;;;;;34.29;12.48;102371.90;107358;1277;108996;-81
2022/03/22 07:04:43;;;;;;;51.20;32.20;;;;;;;34.51;12.25;102363.81;107249;1277;139347;-82
2022/03/22 07:07:16;;;;;;;52.40;32.80;;;;;;;34.80;12.20;102367.15;107331;1277;96151;-81
2022/03/22 07:09:48;;;;;;;57.00;32.60;;;;;;;35.20;11.98;102369.31;107286;1277;138418;-81
2022/03/22 07:12:21;;;;;;;55.90;33.00;;;;;;;35.36;11.69;102369.65;107362;1277;106969;-76
2022/03/22 07:14:53;;;;;;;47.80;29.90;;;;;;;35.20;11.34;102365.58;107251;1277;107883;-82
2022/03/22 07:17:27;;;;;;;55.60;33.00;;;;;;;35.11;11.33;102368.65;107217;1277;139555;-77
2022/03/22 07:19:59;;;;;;;46.00;32.10;;;;;;;35.08;11.38;102365.74;107371;1277;96193;-82
2022/03/22 07:22:32;;;;;;;44.60;29.90;;;;;;;35.05;11.20;102369.29;107162;1277;138241;-84
2022/03/22 07:25:06;;;;;;;47.00;32.00;;;;;;;34.79;11.03;102369.40;107349;1277;108407;-79
2022/03/22 07:27:38;;;;;;;48.50;32.10;;;;;;;34.47;11.15;102373.58;107228;1277;138418;-80
2022/03/22 07:30:12;;;;;;;51.00;32.70;;;;;;;34.21;11.36;102374.65;107383;1277;96163;-80
2022/03/22 07:32:46;;;;;;;43.90;31.60;;;;;;;33.90;10.99;102374.86;107375;1277;96039;-80
2022/03/22 07:35:19;;;;;;;41.20;32.10;;;;;;;33.34;11.01;102370.69;107245;1277;138353;-80
2022/03/22 07:37:52;;;;;;;55.20;32.10;;;;;;;33.02;11.35;102372.28;107440;1276;108740;-80
2022/03/22 07:40:26;;;;;;;48.90;32.40;;;;;;;32.93;11.48;102371.00;107277;1277;139270;-81
2022/03/22 07:42:59;;;;;;;46.90;32.80;;;;;;;32.75;11.45;102368.49;107281;1277;96492;-80
2022/03/22 07:45:31;;;;;;;48.30;32.40;;;;;;;32.71;11.30;102371.99;107298;1277;138819;-82
2022/03/22 07:48:04;;;;;;;43.60;30.60;;;;;;;32.55;11.17;102376.38;107360;1277;112499;-81
2022/03/22 07:53:27;;;;;;;38.30;26.90;;;;;;;32.41;11.49;102370.58;107282;1277;138489;-81
2022/03/22 07:55:59;;;;;;;51.50;29.00;;;;;;;32.23;11.35;102372.81;107271;1277;96137;-81
2022/03/22 07:58:31;;;;;;;51.10;28.30;;;;;;;31.99;11.69;102372.65;107294;1277;137956;-80
2022/03/22 08:01:04;;;;;;;50.80;29.30;;;;;;;31.88;11.73;102372.02;107321;1277;111333;-79
2022/03/22 08:03:36;;;;;;;44.40;27.10;;;;;;;31.89;11.64;102373.70;107276;1276;139261;-79
2022/03/22 08:06:09;;;;;;;43.00;27.10;;;;;;;31.79;11.63;102379.77;107343;1277;108812;-79
2022/03/22 08:08:44;;;;;;;42.40;27.40;;;;;;;31.58;11.69;102372.13;107379;1277;96225;-80
2022/03/22 08:11:16;;;;;;;42.50;26.30;;;;;;;31.41;11.51;102380.11;107286;1277;138913;-78
2022/03/22 08:13:48;;;;;;;42.80;29.30;;;;;;;31.30;11.90;102379.45;107457;1277;111316;-80
2022/03/22 08:16:21;;;;;;;45.10;28.90;;;;;;;31.22;11.82;102375.27;107289;1277;137961;-79
2022/03/22 08:18:54;;;;;;;48.50;30.90;;;;;;;31.26;11.96;102376.50;107390;1276;107429;-79
2022/03/22 08:21:26;;;;;;;38.90;29.00;;;;;;;31.08;11.89;102369.73;107298;1277;138460;-80
2022/03/22 08:23:58;;;;;;;60.00;33.80;;;;;;;31.09;12.14;102366.98;107371;1277;97056;-77
2022/03/22 08:26:32;;;;;;;47.60;29.60;;;;;;;31.43;11.94;102369.09;107244;1277;111591;-78
2022/03/22 08:29:05;;;;;;;53.80;31.70;;;;;;;31.80;12.11;102367.81;107280;1277;139372;-81
2022/03/22 08:31:37;;;;;;;40.90;29.20;;;;;;;32.13;11.72;102364.89;107328;1277;109694;-80
2022/03/22 08:34:10;;;;;;;40.30;29.10;;;;;;;32.20;11.44;102363.16;107189;1277;139195;-78
2022/03/22 08:36:42;;;;;;;42.40;28.30;;;;;;;32.09;11.32;102363.25;107425;1276;96320;-78
2022/03/22 08:39:14;;;;;;;38.80;27.40;;;;;;;32.08;11.75;102364.55;107299;1277;138638;-79
2022/03/22 08:41:47;;;;;;;48.40;27.40;;;;;;;31.93;11.52;102360.55;107440;1277;106757;-81
2022/03/22 08:44:20;;;;;;;38.40;25.60;;;;;;;31.74;11.80;102360.60;107304;1277;107843;-81
2022/03/22 08:46:53;;;;;;;43.10;28.20;;;;;;;31.90;11.81;102359.43;107105;1278;138592;-82
2022/03/22 08:49:26;;;;;;;45.90;27.00;;;;;;;31.80;11.63;102358.13;107414;1277;96146;-83
2022/03/22 08:52:00;;;;;;;45.90;26.90;;;;;;;31.75;11.74;102360.02;107329;1276;138633;-82
2022/03/22 08:54:32;;;;;;;39.30;26.50;;;;;;;31.48;11.63;102356.65;107161;1277;108848;-82
2022/03/22 08:57:05;;;;;;;39.90;24.80;;;;;;;31.47;11.78;102353.30;107305;1277;139252;-79
2022/03/22 08:59:37;;;;;;;38.20;25.10;;;;;;;31.57;11.56;102354.36;107422;1277;95984;-80
2022/03/22 09:02:10;;;;;;;42.80;23.80;;;;;;;31.60;11.63;102351.84;107198;1277;96294;-81
2022/03/22 09:07:36;;;;;;;34.80;22.20;;;;;;;30.90;11.60;102357.63;107367;1276;107818;-78
2022/03/22 09:10:09;;;;;;;24.30;18.80;;;;;;;30.24;11.59;102358.70;107267;1277;138867;-79
2022/03/22 09:12:43;;;;;;;28.20;19.10;;;;;;;29.67;11.62;102358.11;107372;1277;96240;-78
2022/03/22 09:15:15;;;;;;;30.00;21.20;;;;;;;29.17;11.94;102352.75;107322;1276;139267;-79
2022/03/22 09:17:48;;;;;;;28.30;22.40;;;;;;;28.75;12.55;102347.33;107391;1277;110164;-80
2022/03/22 09:20:21;;;;;;;25.00;19.20;;;;;;;28.92;12.25;102348.42;107436;1276;108390;-80
2022/03/22 09:22:54;;;;;;;27.50;19.40;;;;;;;28.74;12.37;102339.52;107249;1277;139198;-79
2022/03/22 09:25:28;;;;;;;29.00;20.70;;;;;;;28.48;12.42;102342.36;107384;1276;96168;-85
2022/03/22 09:28:04;;;;;;;28.60;21.00;;;;;;;28.22;12.43;102341.83;107191;1277;138535;-78
2022/03/22 09:30:38;;;;;;;25.50;19.70;;;;;;;27.86;12.82;102337.65;107426;1276;111711;-83
2022/03/22 09:33:12;;;;;;;37.10;20.40;;;;;;;27.64;13.06;102340.63;107288;1276;138573;-84
2022/03/22 09:35:47;;;;;;;29.30;21.20;;;;;;;27.45;13.16;102332.66;107407;1277;109512;-78
2022/03/22 09:38:21;;;;;;;27.30;20.00;;;;;;;27.28;12.96;102336.70;107417;1276;96242;-77
2022/03/22 09:40:55;;;;;;;29.50;20.10;;;;;;;26.99;13.18;102332.84;107287;1277;138322;-78
2022/03/22 09:43:29;;;;;;;32.50;22.70;;;;;;;26.87;13.35;102332.90;107336;1277;111964;-78
2022/03/22 09:46:03;;;;;;;31.20;22.40;;;;;;;26.68;13.53;102328.52;107249;1277;138362;-78
2022/03/22 09:48:35;;;;;;;23.00;17.50;;;;;;;26.61;13.70;102324.85;107385;1277;105811;-78
2022/03/22 09:53:58;;;;;;;30.70;19.10;;;;;;;26.72;13.24;102324.45;107405;1276;96254;-79
2022/03/22 09:56:31;;;;;;;26.20;19.60;;;;;;;26.60;13.26;102317.43;107393;1277;112884;-79
2022/03/22 09:59:06;;;;;;;37.20;21.50;;;;;;;26.55;13.42;102319.36;107186;1277;138628;-81
2022/03/22 10:01:38;;;;;;;30.30;21.30;;;;;;;26.48;13.71;102317.38;107165;1277;110212;-80
2022/03/22 10:04:13;;;;;;;31.70;21.00;;;;;;;26.38;14.05;102315.69;107216;1277;138885;-81
2022/03/22 10:06:57;;;;;;;31.20;20.20;;;;;;;26.49;13.98;102312.14;107425;1277;96155;-82
2022/03/22 10:09:31;;;;;;;30.90;20.00;;;;;;;26.54;13.82;102311.27;107267;1277;138279;-80
2022/03/22 10:12:05;;;;;;;31.90;21.00;;;;;;;26.74;14.08;102311.50;106381;1277;107874;-81
2022/03/22 10:14:39;;;;;;;31.60;20.10;;;;;;;26.92;13.78;102307.57;107200;1277;109029;-79
2022/03/22 10:17:15;;;;;;;30.30;21.20;;;;;;;26.91;13.65;102310.71;107169;1277;138123;-79
2022/03/22 10:19:49;;;;;;;31.80;19.90;;;;;;;26.90;14.00;102303.11;107362;1277;96128;-79
2022/03/22 10:22:26;;;;;;;34.30;22.00;;;;;;;27.08;13.75;102304.58;107264;1276;138401;-79
2022/03/22 10:25:02;;;;;;;25.00;19.90;;;;;;;26.96;13.47;102301.23;107352;1276;109367;-80
2022/03/22 10:27:39;;;;;;;28.50;20.20;;;;;;;26.56;13.79;102300.44;107215;1276;138370;-80
2022/03/22 10:30:32;;;;;;;32.40;21.90;;;;;;;26.55;13.83;102300.09;107362;1277;96364;-79
2022/03/22 10:33:05;;;;;;;30.40;20.40;;;;;;;26.74;14.06;102297.02;107101;1277;138220;-79
2022/03/22 10:35:39;;;;;;;30.30;21.10;;;;;;;26.84;13.59;102298.69;107255;1277;111242;-81
2022/03/22 10:38:16;;;;;;;28.30;20.20;;;;;;;26.57;13.74;102293.39;107326;1277;109114;-79
2022/03/22 10:40:50;;;;;;;29.00;20.30;;;;;;;26.41;13.83;102294.80;107210;1276;139161;-79
2022/03/22 10:43:26;;;;;;;29.70;20.30;;;;;;;26.30;13.81;102289.61;107226;1277;96243;-78
2022/03/22 10:46:01;;;;;;;29.30;20.60;;;;;;;25.92;14.01;102291.77;107264;1276;139001;-78
2022/03/22 10:48:39;;;;;;;27.30;20.60;;;;;;;25.60;14.14;102290.95;107384;1276;111826;-79
2022/03/22 10:51:11;;;;;;;27.90;19.80;;;;;;;25.24;14.13;102292.33;107270;1276;138868;-78
2022/03/22 10:53:46;;;;;;;34.40;19.40;;;;;;;24.65;14.44;102282.13;107330;1277;107923;-79
2022/03/22 10:56:19;;;;;;;29.90;19.90;;;;;;;24.15;14.62;102290.16;107313;1277;96104;-79
2022/03/22 10:58:52;;;;;;;28.90;19.40;;;;;;;23.52;14.99;102291.67;107287;1277;139744;-79
2022/03/22 11:01:26;;;;;;;27.10;19.80;;;;;;;23.01;15.55;102282.69;107343;1276;112564;-78
2022/03/22 11:04:00;;;;;;;28.40;20.50;;;;;;;22.94;15.84;102280.41;107093;1277;138458;-78
2022/03/22 11:06:34;;;;;;;29.80;18.70;;;;;;;22.98;16.01;102275.23;107219;1277;107737;-78
2022/03/22 11:09:06;;;;;;;29.40;19.00;;;;;;;22.84;15.97;102276.83;107149;1277;138632;-79
2022/03/22 11:11:39;;;;;;;33.20;20.10;;;;;;;22.55;15.88;102277.23;107393;1277;95973;-78
2022/03/22 11:14:15;;;;;;;31.90;18.70;;;;;;;22.17;16.33;102274.71;107339;1277;111420;-76
2022/03/22 11:16:50;;;;;;;31.90;20.40;;;;;;;22.18;16.42;102272.85;107248;1276;139204;-77
2022/03/22 11:19:27;;;;;;;32.40;19.40;;;;;;;22.30;16.94;102264.80;107328;1276;107141;-78
2022/03/22 11:22:09;;;;;;;26.60;17.60;;;;;;;22.71;17.04;102256.56;107201;1277;139333;-79
2022/03/22 11:24:42;;;;;;;24.80;17.30;;;;;;;22.92;16.38;102258.16;107324;1277;97051;-80
2022/03/22 11:27:14;;;;;;;28.40;17.80;;;;;;;22.99;16.17;102256.56;107232;1277;138672;-79
2022/03/22 11:29:47;;;;;;;25.70;17.10;;;;;;;22.84;15.98;102253.41;107255;1277;108490;-79
2022/03/22 11:35:17;;;;;;;27.30;17.60;;;;;;;22.99;15.90;102247.30;107127;1275;138859;-79
2022/03/22 11:38:01;;;;;;;26.70;17.50;;;;;;;22.55;15.61;102247.63;107367;1276;96192;-80
2022/03/22 11:43:24;;;;;;;27.60;18.80;;;;;;;21.64;16.36;102250.27;107282;1276;107685;-79
2022/03/22 11:45:56;;;;;;;32.10;18.70;;;;;;;21.39;16.75;102243.45;107191;1276;138297;-79
2022/03/22 11:48:33;;;;;;;27.40;18.50;;;;;;;21.32;16.92;102241.30;107343;1277;96126;-79
2022/03/22 11:51:09;;;;;;;32.80;18.80;;;;;;;21.48;17.29;102232.96;107215;1277;139380;-76
2022/03/22 11:53:46;;;;;;;29.00;17.00;;;;;;;21.73;17.30;102228.23;107308;1276;111699;-79
2022/03/22 11:56:28;;;;;;;21.70;15.60;;;;;;;21.53;16.73;102233.59;107301;1277;108711;-79
2022/03/22 11:59:04;;;;;;;24.10;16.90;;;;;;;21.19;16.64;102231.96;107101;1277;138723;-80
2022/03/22 12:01:38;;;;;;;26.80;17.70;;;;;;;20.82;16.79;102232.54;106017;1277;97843;-79
2022/03/22 12:04:17;;;;;;;25.70;16.10;;;;;;;20.62;17.20;102226.71;107220;1277;139763;-79